• Join FlightAware (Why Join?)
  • Login
  • US Flag 
04:28PM EDT


 

Airport Tracker/Info


-or-


 

Live Flight TrackerFlight Track Log ✈ SWA1718 ✈ 23-Apr-2013 ✈ KDEN - KMDW

Flight Track Log - Related Links

Times and Time Zones

All times are in EDT time to prevent confusion due to time zone crossing. See the SWA1718 flight status page for this flight to view local times or setup timezone preferences in your user account.

Time Position Orientation Groundspeed Altitude Reporting Facility
EDT Latitude Longitude Course Direction KTS MPH feet Rate Location/Type
07:17PM 39.8739 -104.3656 93° East 296 341 12,000  Level Denver Center
07:18PM 39.8728 -104.2228 91° East 323 372 15,000 2,700 Climbing Denver Center
07:19PM 39.8722 -104.0817 90° East 363 418 17,700 2,340 Climbing Denver Center
07:20PM 39.8708 -103.9467 91° East 372 428 19,800 1,920 Climbing Denver Center
07:21PM 39.8775 -103.8039 86° East 395 455 21,700 1,860 Climbing Denver Center
07:23PM 39.8922 -103.6619 82° East 389 448 23,700 1,560 Climbing Denver Center
07:24PM 39.9094 -103.5064 82° East 424 488 25,300 1,500 Climbing Denver Center
07:25PM 39.9336 -103.2917 82° East 445 512 27,200 1,680 Climbing Denver Center
07:26PM 39.9519 -103.1264 82° East 455 524 28,800 1,260 Climbing Denver Center
07:27PM 39.9719 -102.9539 81° East 470 541 29,900 780 Climbing Denver Center
07:28PM 39.9919 -102.7756 82° East 489 563 30,700 1,080 Climbing Denver Center
07:29PM 40.0114 -102.5825 82° East 508 585 32,400 1,920 Climbing Denver Center
07:30PM 40.0342 -102.3600 82° East 488 562 34,800 1,200 Climbing Denver Center
07:31PM 40.0506 -102.1942 83° East 486 559 35,000  Climbing Denver Center
07:32PM 40.0717 -101.9939 82° East 499 574 34,900 -60 Descending Denver Center
07:33PM 40.0892 -101.8228 82° East 498 573 34,900  Level Denver Center
07:34PM 40.1081 -101.6233 83° East 498 573 34,900  Level Denver Center
07:35PM 40.1250 -101.4511 83° East 501 577 34,900  Level Denver Center
07:37PM 40.1431 -101.2494 83° East 502 578 34,900  Level Denver Center
07:38PM 40.1628 -101.0467 83° East 506 582 35,000  Climbing Denver Center
07:39PM 40.1814 -100.8414 83° East 511 588 35,000  Level Denver Center
07:40PM 40.1978 -100.6664 83° East 511 588 35,000  Level Denver Center
07:41PM 40.2069 -100.4589 87° East 513 590 35,000  Level Denver Center
07:42PM 40.2097 -100.2808 89° East 513 590 35,000  Level Denver Center
07:43PM 40.2117 -100.0714 89° East 518 596 35,000  Level Denver Center
07:44PM 40.2142 -99.8756 89° East 518 596 35,000  Level Denver Center
07:45PM 40.2172 -99.6842 89° East 525 604 35,000  Level Denver Center
07:46PM 40.2192 -99.4958 89° East 522 601 35,000  Level Denver Center
07:47PM 40.2192 -99.3067 90° East 522 601 35,000  Level Denver Center
07:48PM 40.2211 -99.1181 89° East 521 600 35,000  Level Denver Center
07:49PM 40.2222 -98.8914 90° East 521 600 35,000  Level Denver Center
07:50PM 40.2219 -98.7408 90° East 521 600 35,000  Level Minneapolis Center
07:51PM 40.2219 -98.5903 90° East 521 600 35,000  Level Minneapolis Center
07:52PM 40.2222 -98.3614 90° East 525 604 35,000  Level Minneapolis Center
07:53PM 40.2219 -98.1708 90° East 526 605 35,000  Level Minneapolis Center
07:54PM 40.2217 -97.9811 90° East 524 603 35,000  Level Minneapolis Center
07:55PM 40.2197 -97.7108 90° East 530 610 35,000  Level Minneapolis Center
07:56PM 40.2183 -97.5192 90° East 530 610 35,000  Level Minneapolis Center
07:57PM 40.2158 -97.3258 91° East 532 612 35,000  Level Minneapolis Center
07:58PM 40.2147 -97.1436 90° East 531 611 35,000  Level Minneapolis Center
07:59PM 40.2125 -96.9506 91° East 532 612 35,000  Level Minneapolis Center
08:00PM 40.2086 -96.7211 91° East 530 610 35,000  Level Minneapolis Center
08:01PM 40.2058 -96.5292 91° East 531 611 35,000  Level Minneapolis Center
08:02PM 40.2025 -96.3369 91° East 531 611 35,000  Level Minneapolis Center
08:03PM 40.2197 -96.1022 84° East 545 627 35,000  Level Minneapolis Center
08:05PM 40.2553 -95.9092 76° East 550 633 35,000  Level Minneapolis Center
08:06PM 40.2919 -95.7139 76° East 554 638 35,000  Level Minneapolis Center
08:07PM 40.3264 -95.5222 77° East 548 631 35,000  Level Minneapolis Center
08:08PM 40.3617 -95.3289 76° East 547 629 35,000  Level Minneapolis Center
08:09PM 40.3958 -95.1353 77° East 546 628 35,000  Level Minneapolis Center
08:10PM 40.4369 -94.9050 77° East 544 626 35,000  Level Minneapolis Center
08:11PM 40.4708 -94.7097 77° East 547 629 35,000  Level Minneapolis Center
08:12PM 40.5056 -94.5094 77° East 545 627 35,000  Level Minneapolis Center
08:13PM 40.5369 -94.3169 78° East 544 626 35,000  Level Minneapolis Center
08:14PM 40.5714 -94.1225 77° East 546 628 35,000  Level Minneapolis Center
08:15PM 40.6031 -93.9286 78° East 546 628 35,000  Level Minneapolis Center
08:16PM 40.6306 -93.7344 79° East 544 626 35,000  Level Minneapolis Center
08:17PM 40.6572 -93.5408 80° East 542 624 35,000  Level Minneapolis Center
08:18PM 40.6922 -93.3058 79° East 544 626 35,000  Level Minneapolis Center
08:19PM 40.7208 -93.1100 79° East 544 626 35,000  Level Minneapolis Center
08:20PM 40.7483 -92.9142 79° East 544 626 35,000  Level Minneapolis Center
08:21PM 40.7747 -92.7175 80° East 541 623 35,000 -60 Level Chicago Center
08:22PM 40.8019 -92.5217 80° East 541 623 34,900 -540 Descending Chicago Center
08:23PM 40.8281 -92.3250 80° East 544 626 33,900 -1,920 Descending Chicago Center
08:24PM 40.8542 -92.1308 80° East 539 620 31,000 -2,400 Descending Chicago Center
08:25PM 40.8792 -91.9392 80° East 532 612 29,000 -1,020 Descending Chicago Center
08:26PM 40.9033 -91.7489 80° East 527 606 29,000  Level Chicago Center
08:27PM 40.9339 -91.5225 80° East 524 603 29,000  Level Chicago Center
08:28PM 40.9564 -91.3339 81° East 522 601 29,000  Level Chicago Center
08:29PM 40.9817 -91.1353 80° East 522 601 29,000 -780 Level Chicago Center
08:30PM 41.0025 -90.9517 81° East 508 585 27,500 -1,860 Descending Chicago Center
08:31PM 41.0239 -90.7786 81° East 483 556 25,200 -1,740 Descending Chicago Center
08:32PM 41.0433 -90.6136 81° East 456 525 24,000 -600 Descending Chicago Center
08:33PM 41.0617 -90.4586 81° East 429 494 24,000 -1,020 Level Chicago Center
08:34PM 41.0811 -90.2933 81° East 449 517 21,900 -2,100 Descending Chicago Center
08:35PM 41.1236 -90.1389 70° East 444 511 19,700 -2,100 Descending Chicago Center
08:36PM 41.1453 -89.9847 79° East 430 495 17,600 -2,100 Descending Chicago Center
08:37PM 41.1817 -89.8150 74° East 400 460 15,500 -1,260 Descending Chicago Center
08:38PM 41.2139 -89.6836 72° East 373 429 15,000 -960 Descending Chicago Center
08:40PM 41.2469 -89.5528 71° East 371 427 13,600 -1,260 Descending Chicago Center
08:41PM 41.2786 -89.4244 72° East 366 421 12,400 -1,260 Descending Chicago Center
08:42PM 41.3078 -89.3058 72° East 341 392 11,000 -720 Descending Chicago Center
08:43PM 41.3400 -89.1725 72° East 331 381 11,000 -420 Level Chicago Center
08:44PM 41.3686 -89.0558 72° East 333 383 10,200 -900 Descending Chicago Center
08:45PM 41.3964 -88.9417 72° East 328 377 9,200 -600 Descending Chicago Center
08:46PM 41.4233 -88.8289 72° East 325 374 9,000 -300 Descending Chicago Center
08:47PM 41.4506 -88.7175 72° East 319 367 8,600 -1,020 Descending Chicago Center
08:48PM 41.4775 -88.6083 72° East 313 360 7,000 -1,260 Descending Chicago Center
08:49PM 41.5072 -88.4817 73° East 301 346 6,000 -780 Descending Chicago Center
08:50PM 41.5331 -88.3828 71° East 287 330 5,400 -540 Descending Chicago Center
08:51PM 41.5572 -88.2844 72° East 279 321 5,000 -240 Descending Chicago Center
08:52PM 41.5597 -88.1831 88° East 276 318 5,000  Level Chicago Center
08:53PM 41.5650 -88.0842 86° East 269 310 5,000  Level Chicago Center
08:54PM 41.5728 -87.9842 84° East 268 308 5,000 -420 Level Chicago Center
08:55PM 41.5911 -87.8853 76° East 271 312 4,200 -540 Descending Chicago Center
08:56PM 41.5914 -87.7867 90° East 267 307 4,000 -300 Descending Chicago Center
08:57PM 41.5919 -87.6736 90° East 261 300 3,700 -540 Descending Chicago Center
08:58PM 41.6103 -87.6069 70° East 227 261 3,000 -360 Descending Chicago Center
08:59PM 41.6475 -87.5781 30° Northeast 192 221 3,000  Level Chicago Center
09:00PM 41.6833 -87.6111 325° Northwest 170 196 3,000 -240 Level Chicago Center
09:01PM 41.7150 -87.6525 316° Northwest 164 189 2,600 -720 Descending Chicago Center
09:02PM 41.7483 -87.7022 312° West 157 181 1,600 -840 Descending Chicago Center
09:03PM 41.7719 -87.7342 315° West 142 163 900 -720 Descending Chicago Center
09:05PM 41.7833 -87.7500 North  Level FlightAware Approximate
09:12PM 41.7860 -87.7524 North  Level Estimated